sensor_id;sensor_type;location;lat;lon;timestamp;temperature;humidity
12481;DHT22;6305;48.398;11.762;2023-03-19T00:00:19;5.40;99.90
12481;DHT22;6305;48.398;11.762;2023-03-19T00:02:46;5.30;99.90
12481;DHT22;6305;48.398;11.762;2023-03-19T00:05:16;5.30;99.90
12481;DHT22;6305;48.398;11.762;2023-03-19T00:07:43;5.20;99.90
12481;DHT22;6305;48.398;11.762;2023-03-19T00:10:10;5.20;99.90
12481;DHT22;6305;48.398;11.762;2023-03-19T00:12:37;5.10;99.90
12481;DHT22;6305;48.398;11.762;2023-03-19T00:15:06;5.10;99.90
12481;DHT22;6305;48.398;11.762;2023-03-19T00:17:39;5.10;99.90
12481;DHT22;6305;48.398;11.762;2023-03-19T00:20:07;5.00;99.90
12481;DHT22;6305;48.398;11.762;2023-03-19T00:22:35;4.90;99.90
12481;DHT22;6305;48.398;11.762;2023-03-19T00:25:02;4.90;99.90
12481;DHT22;6305;48.398;11.762;2023-03-19T00:27:29;4.90;99.90
12481;DHT22;6305;48.398;11.762;2023-03-19T00:29:56;4.80;99.90
12481;DHT22;6305;48.398;11.762;2023-03-19T00:32:25;4.80;99.90
12481;DHT22;6305;48.398;11.762;2023-03-19T00:34:52;4.80;99.90
12481;DHT22;6305;48.398;11.762;2023-03-19T00:37:18;4.80;99.90
12481;DHT22;6305;48.398;11.762;2023-03-19T00:39:46;4.90;99.90
12481;DHT22;6305;48.398;11.762;2023-03-19T00:42:14;4.80;99.90
12481;DHT22;6305;48.398;11.762;2023-03-19T00:44:41;4.80;99.90
12481;DHT22;6305;48.398;11.762;2023-03-19T00:47:08;4.80;99.90
12481;DHT22;6305;48.398;11.762;2023-03-19T00:49:37;4.80;99.90
12481;DHT22;6305;48.398;11.762;2023-03-19T00:52:04;4.80;99.90
12481;DHT22;6305;48.398;11.762;2023-03-19T00:54:31;4.80;99.90
12481;DHT22;6305;48.398;11.762;2023-03-19T00:56:59;4.70;99.90
12481;DHT22;6305;48.398;11.762;2023-03-19T00:59:26;4.70;99.90
12481;DHT22;6305;48.398;11.762;2023-03-19T01:01:53;4.70;99.90
12481;DHT22;6305;48.398;11.762;2023-03-19T01:04:20;4.60;99.90
12481;DHT22;6305;48.398;11.762;2023-03-19T01:06:49;4.60;99.90
12481;DHT22;6305;48.398;11.762;2023-03-19T01:09:16;4.50;99.90
12481;DHT22;6305;48.398;11.762;2023-03-19T01:11:43;4.40;99.90
12481;DHT22;6305;48.398;11.762;2023-03-19T01:14:10;4.30;99.90
12481;DHT22;6305;48.398;11.762;2023-03-19T01:16:37;4.30;99.90
12481;DHT22;6305;48.398;11.762;2023-03-19T01:19:05;4.20;99.90
12481;DHT22;6305;48.398;11.762;2023-03-19T01:21:32;4.10;99.90
12481;DHT22;6305;48.398;11.762;2023-03-19T01:24:02;4.10;99.90
12481;DHT22;6305;48.398;11.762;2023-03-19T01:26:29;4.10;99.90
12481;DHT22;6305;48.398;11.762;2023-03-19T01:29:08;4.10;99.90
12481;DHT22;6305;48.398;11.762;2023-03-19T01:31:35;4.10;99.90
12481;DHT22;6305;48.398;11.762;2023-03-19T01:34:21;4.00;99.90
12481;DHT22;6305;48.398;11.762;2023-03-19T01:36:53;3.90;99.90
12481;DHT22;6305;48.398;11.762;2023-03-19T01:39:28;3.90;99.90
12481;DHT22;6305;48.398;11.762;2023-03-19T01:42:00;3.90;99.90
12481;DHT22;6305;48.398;11.762;2023-03-19T01:44:38;3.80;99.90
12481;DHT22;6305;48.398;11.762;2023-03-19T01:47:29;3.80;99.90
12481;DHT22;6305;48.398;11.762;2023-03-19T01:50:22;3.90;99.90
12481;DHT22;6305;48.398;11.762;2023-03-19T01:53:01;3.80;99.90
12481;DHT22;6305;48.398;11.762;2023-03-19T01:55:47;3.80;99.90
12481;DHT22;6305;48.398;11.762;2023-03-19T01:58:31;3.80;99.90
12481;DHT22;6305;48.398;11.762;2023-03-19T02:01:19;3.70;99.90
12481;DHT22;6305;48.398;11.762;2023-03-19T02:03:49;3.70;99.90
12481;DHT22;6305;48.398;11.762;2023-03-19T02:06:22;3.70;99.90
12481;DHT22;6305;48.398;11.762;2023-03-19T02:08:50;3.70;99.90
12481;DHT22;6305;48.398;11.762;2023-03-19T02:11:19;3.70;99.90
12481;DHT22;6305;48.398;11.762;2023-03-19T02:13:47;3.60;99.90
12481;DHT22;6305;48.398;11.762;2023-03-19T02:16:14;3.60;99.90
12481;DHT22;6305;48.398;11.762;2023-03-19T02:18:41;3.50;99.90
12481;DHT22;6305;48.398;11.762;2023-03-19T02:21:10;3.50;99.90
12481;DHT22;6305;48.398;11.762;2023-03-19T02:23:42;3.50;99.90
12481;DHT22;6305;48.398;11.762;2023-03-19T02:26:20;3.50;99.90
12481;DHT22;6305;48.398;11.762;2023-03-19T02:28:50;3.50;99.90
12481;DHT22;6305;48.398;11.762;2023-03-19T02:31:25;3.60;99.90
12481;DHT22;6305;48.398;11.762;2023-03-19T02:33:59;3.60;99.90
12481;DHT22;6305;48.398;11.762;2023-03-19T02:36:30;3.60;99.90
12481;DHT22;6305;48.398;11.762;2023-03-19T02:39:00;3.70;99.90
12481;DHT22;6305;48.398;11.762;2023-03-19T02:41:31;3.70;99.90
12481;DHT22;6305;48.398;11.762;2023-03-19T02:44:01;3.70;99.90
12481;DHT22;6305;48.398;11.762;2023-03-19T02:46:29;3.80;99.90
12481;DHT22;6305;48.398;11.762;2023-03-19T02:48:57;3.80;99.90
12481;DHT22;6305;48.398;11.762;2023-03-19T02:51:24;3.90;99.90
12481;DHT22;6305;48.398;11.762;2023-03-19T02:53:51;3.90;99.90
12481;DHT22;6305;48.398;11.762;2023-03-19T02:56:18;3.80;99.90
12481;DHT22;6305;48.398;11.762;2023-03-19T02:58:46;3.80;99.90
12481;DHT22;6305;48.398;11.762;2023-03-19T03:01:13;3.80;99.90
12481;DHT22;6305;48.398;11.762;2023-03-19T03:03:41;3.70;99.90
12481;DHT22;6305;48.398;11.762;2023-03-19T03:06:08;3.60;99.90
12481;DHT22;6305;48.398;11.762;2023-03-19T03:08:36;3.60;99.90
12481;DHT22;6305;48.398;11.762;2023-03-19T03:11:03;3.50;99.90
12481;DHT22;6305;48.398;11.762;2023-03-19T03:13:30;3.50;99.90
12481;DHT22;6305;48.398;11.762;2023-03-19T03:15:58;3.50;99.90
12481;DHT22;6305;48.398;11.762;2023-03-19T03:18:27;3.50;99.90
12481;DHT22;6305;48.398;11.762;2023-03-19T03:20:54;3.50;99.90
12481;DHT22;6305;48.398;11.762;2023-03-19T03:23:21;3.40;99.90
12481;DHT22;6305;48.398;11.762;2023-03-19T03:25:49;3.40;99.90
12481;DHT22;6305;48.398;11.762;2023-03-19T03:28:16;3.40;99.90
12481;DHT22;6305;48.398;11.762;2023-03-19T03:30:44;3.40;99.90
12481;DHT22;6305;48.398;11.762;2023-03-19T03:33:13;3.40;99.90
12481;DHT22;6305;48.398;11.762;2023-03-19T03:35:40;3.40;99.90
12481;DHT22;6305;48.398;11.762;2023-03-19T03:38:07;3.40;99.90
12481;DHT22;6305;48.398;11.762;2023-03-19T03:40:34;3.40;99.90
12481;DHT22;6305;48.398;11.762;2023-03-19T03:43:01;3.50;99.90
12481;DHT22;6305;48.398;11.762;2023-03-19T03:45:29;3.50;99.90
12481;DHT22;6305;48.398;11.762;2023-03-19T03:47:57;3.50;99.90
12481;DHT22;6305;48.398;11.762;2023-03-19T03:50:25;3.50;99.90
12481;DHT22;6305;48.398;11.762;2023-03-19T03:52:55;3.60;99.90
12481;DHT22;6305;48.398;11.762;2023-03-19T03:55:22;3.60;99.90
12481;DHT22;6305;48.398;11.762;2023-03-19T03:57:49;3.50;99.90
12481;DHT22;6305;48.398;11.762;2023-03-19T04:00:17;3.50;99.90
12481;DHT22;6305;48.398;11.762;2023-03-19T04:02:44;3.40;99.90
12481;DHT22;6305;48.398;11.762;2023-03-19T04:05:14;3.40;99.90
12481;DHT22;6305;48.398;11.762;2023-03-19T04:07:43;3.30;99.90
12481;DHT22;6305;48.398;11.762;2023-03-19T04:10:11;3.30;99.90
12481;DHT22;6305;48.398;11.762;2023-03-19T04:12:39;3.30;99.90
12481;DHT22;6305;48.398;11.762;2023-03-19T04:15:08;3.30;99.90
12481;DHT22;6305;48.398;11.762;2023-03-19T04:17:37;3.30;99.90
12481;DHT22;6305;48.398;11.762;2023-03-19T04:20:06;3.30;99.90
12481;DHT22;6305;48.398;11.762;2023-03-19T04:22:33;3.30;99.90
12481;DHT22;6305;48.398;11.762;2023-03-19T04:25:03;3.40;99.90
12481;DHT22;6305;48.398;11.762;2023-03-19T04:27:33;3.40;99.90
12481;DHT22;6305;48.398;11.762;2023-03-19T04:30:00;3.50;99.90
12481;DHT22;6305;48.398;11.762;2023-03-19T04:32:28;3.50;99.90
12481;DHT22;6305;48.398;11.762;2023-03-19T04:34:55;3.60;99.90
12481;DHT22;6305;48.398;11.762;2023-03-19T04:37:23;3.60;99.90
12481;DHT22;6305;48.398;11.762;2023-03-19T04:39:50;3.70;99.90
12481;DHT22;6305;48.398;11.762;2023-03-19T04:42:20;3.70;99.90
12481;DHT22;6305;48.398;11.762;2023-03-19T04:44:54;3.70;99.90
12481;DHT22;6305;48.398;11.762;2023-03-19T04:47:22;3.80;99.90
12481;DHT22;6305;48.398;11.762;2023-03-19T04:49:56;3.90;99.90
12481;DHT22;6305;48.398;11.762;2023-03-19T04:52:24;3.90;99.90
12481;DHT22;6305;48.398;11.762;2023-03-19T04:54:51;3.90;99.90
12481;DHT22;6305;48.398;11.762;2023-03-19T04:57:20;4.00;99.90
12481;DHT22;6305;48.398;11.762;2023-03-19T04:59:49;4.00;99.90
12481;DHT22;6305;48.398;11.762;2023-03-19T05:02:19;4.00;99.90
12481;DHT22;6305;48.398;11.762;2023-03-19T05:04:47;4.10;99.90
12481;DHT22;6305;48.398;11.762;2023-03-19T05:07:14;4.10;99.90
12481;DHT22;6305;48.398;11.762;2023-03-19T05:09:42;4.20;99.90
12481;DHT22;6305;48.398;11.762;2023-03-19T05:12:11;4.30;99.90
12481;DHT22;6305;48.398;11.762;2023-03-19T05:14:45;4.30;99.90
12481;DHT22;6305;48.398;11.762;2023-03-19T05:17:18;4.40;99.90
12481;DHT22;6305;48.398;11.762;2023-03-19T05:20:03;4.50;99.90
12481;DHT22;6305;48.398;11.762;2023-03-19T05:22:32;4.50;99.90
12481;DHT22;6305;48.398;11.762;2023-03-19T05:24:59;4.60;99.90
12481;DHT22;6305;48.398;11.762;2023-03-19T05:27:28;4.60;99.90
12481;DHT22;6305;48.398;11.762;2023-03-19T05:30:04;4.70;99.90
12481;DHT22;6305;48.398;11.762;2023-03-19T05:32:38;4.70;99.90
12481;DHT22;6305;48.398;11.762;2023-03-19T05:35:08;4.80;99.90
12481;DHT22;6305;48.398;11.762;2023-03-19T05:37:36;4.80;99.90
12481;DHT22;6305;48.398;11.762;2023-03-19T05:40:04;4.80;99.90
12481;DHT22;6305;48.398;11.762;2023-03-19T05:42:32;4.80;99.90
12481;DHT22;6305;48.398;11.762;2023-03-19T05:45:00;4.80;99.90
12481;DHT22;6305;48.398;11.762;2023-03-19T05:47:37;4.90;99.90
12481;DHT22;6305;48.398;11.762;2023-03-19T05:50:05;4.90;99.90
12481;DHT22;6305;48.398;11.762;2023-03-19T05:52:33;4.90;99.90
12481;DHT22;6305;48.398;11.762;2023-03-19T05:55:01;5.00;99.90
12481;DHT22;6305;48.398;11.762;2023-03-19T05:57:42;5.00;99.90
12481;DHT22;6305;48.398;11.762;2023-03-19T06:00:18;5.10;99.90
12481;DHT22;6305;48.398;11.762;2023-03-19T06:02:48;5.20;99.90
12481;DHT22;6305;48.398;11.762;2023-03-19T06:05:16;5.20;99.90
12481;DHT22;6305;48.398;11.762;2023-03-19T06:07:43;5.20;99.90
12481;DHT22;6305;48.398;11.762;2023-03-19T06:10:19;5.30;99.90
12481;DHT22;6305;48.398;11.762;2023-03-19T06:12:50;5.40;99.90
12481;DHT22;6305;48.398;11.762;2023-03-19T06:15:36;5.50;99.90
12481;DHT22;6305;48.398;11.762;2023-03-19T06:18:11;5.50;99.90
12481;DHT22;6305;48.398;11.762;2023-03-19T06:20:38;5.50;99.90
12481;DHT22;6305;48.398;11.762;2023-03-19T06:23:05;5.60;99.90
12481;DHT22;6305;48.398;11.762;2023-03-19T06:25:32;5.60;99.90
12481;DHT22;6305;48.398;11.762;2023-03-19T06:27:59;5.70;99.90
12481;DHT22;6305;48.398;11.762;2023-03-19T06:30:34;5.70;99.90
12481;DHT22;6305;48.398;11.762;2023-03-19T06:33:05;5.90;99.90
12481;DHT22;6305;48.398;11.762;2023-03-19T06:35:34;6.00;99.90
12481;DHT22;6305;48.398;11.762;2023-03-19T06:38:01;6.20;99.90
12481;DHT22;6305;48.398;11.762;2023-03-19T06:40:29;6.30;99.90
12481;DHT22;6305;48.398;11.762;2023-03-19T06:42:56;6.50;99.90
12481;DHT22;6305;48.398;11.762;2023-03-19T06:45:23;6.70;99.90
12481;DHT22;6305;48.398;11.762;2023-03-19T06:47:50;6.80;99.90
12481;DHT22;6305;48.398;11.762;2023-03-19T06:50:17;7.00;99.90
12481;DHT22;6305;48.398;11.762;2023-03-19T06:52:45;7.20;99.90
12481;DHT22;6305;48.398;11.762;2023-03-19T06:55:12;7.30;99.90
12481;DHT22;6305;48.398;11.762;2023-03-19T06:57:39;7.40;99.90
12481;DHT22;6305;48.398;11.762;2023-03-19T07:00:07;7.50;99.90
12481;DHT22;6305;48.398;11.762;2023-03-19T07:02:36;7.60;99.90
12481;DHT22;6305;48.398;11.762;2023-03-19T07:05:03;7.80;99.90
12481;DHT22;6305;48.398;11.762;2023-03-19T07:07:30;7.90;99.90
12481;DHT22;6305;48.398;11.762;2023-03-19T07:09:58;7.90;99.90
12481;DHT22;6305;48.398;11.762;2023-03-19T07:12:25;8.00;99.90
12481;DHT22;6305;48.398;11.762;2023-03-19T07:14:53;8.10;99.90
12481;DHT22;6305;48.398;11.762;2023-03-19T07:17:20;8.10;99.90
12481;DHT22;6305;48.398;11.762;2023-03-19T07:19:48;8.10;99.90
12481;DHT22;6305;48.398;11.762;2023-03-19T07:22:15;8.30;99.90
12481;DHT22;6305;48.398;11.762;2023-03-19T07:24:42;8.50;99.90
12481;DHT22;6305;48.398;11.762;2023-03-19T07:27:11;8.80;99.90
12481;DHT22;6305;48.398;11.762;2023-03-19T07:29:37;9.10;99.90
12481;DHT22;6305;48.398;11.762;2023-03-19T07:32:05;9.40;99.90
12481;DHT22;6305;48.398;11.762;2023-03-19T07:34:33;9.60;99.90
12481;DHT22;6305;48.398;11.762;2023-03-19T07:37:00;10.00;99.90
12481;DHT22;6305;48.398;11.762;2023-03-19T07:39:27;10.20;99.90
12481;DHT22;6305;48.398;11.762;2023-03-19T07:41:54;10.40;99.90
12481;DHT22;6305;48.398;11.762;2023-03-19T07:44:23;10.70;99.90
12481;DHT22;6305;48.398;11.762;2023-03-19T07:46:50;10.90;99.90
12481;DHT22;6305;48.398;11.762;2023-03-19T07:49:17;11.10;99.90
12481;DHT22;6305;48.398;11.762;2023-03-19T07:51:44;11.50;99.90
12481;DHT22;6305;48.398;11.762;2023-03-19T07:54:11;11.80;99.90
12481;DHT22;6305;48.398;11.762;2023-03-19T07:56:38;12.00;99.90
12481;DHT22;6305;48.398;11.762;2023-03-19T07:59:05;12.30;99.90
12481;DHT22;6305;48.398;11.762;2023-03-19T08:01:33;12.40;99.90
12481;DHT22;6305;48.398;11.762;2023-03-19T08:04:01;12.50;99.90
12481;DHT22;6305;48.398;11.762;2023-03-19T08:06:28;12.30;99.90
12481;DHT22;6305;48.398;11.762;2023-03-19T08:08:55;12.30;99.90
12481;DHT22;6305;48.398;11.762;2023-03-19T08:11:22;12.10;99.90
12481;DHT22;6305;48.398;11.762;2023-03-19T08:13:49;11.90;99.90
12481;DHT22;6305;48.398;11.762;2023-03-19T08:16:16;11.80;99.90
12481;DHT22;6305;48.398;11.762;2023-03-19T08:18:44;11.70;99.90
12481;DHT22;6305;48.398;11.762;2023-03-19T08:21:11;11.60;99.90
12481;DHT22;6305;48.398;11.762;2023-03-19T08:23:38;11.60;99.90
12481;DHT22;6305;48.398;11.762;2023-03-19T08:26:05;11.60;99.90
12481;DHT22;6305;48.398;11.762;2023-03-19T08:28:32;11.80;99.90
12481;DHT22;6305;48.398;11.762;2023-03-19T08:31:06;11.90;99.90
12481;DHT22;6305;48.398;11.762;2023-03-19T08:33:33;12.10;99.90
12481;DHT22;6305;48.398;11.762;2023-03-19T08:36:07;12.10;99.90
12481;DHT22;6305;48.398;11.762;2023-03-19T08:38:34;12.10;99.90
12481;DHT22;6305;48.398;11.762;2023-03-19T08:41:01;12.10;99.90
12481;DHT22;6305;48.398;11.762;2023-03-19T08:43:29;11.90;99.90
12481;DHT22;6305;48.398;11.762;2023-03-19T08:45:56;11.80;99.90
12481;DHT22;6305;48.398;11.762;2023-03-19T08:48:23;11.80;99.90
12481;DHT22;6305;48.398;11.762;2023-03-19T08:50:54;11.90;99.90
12481;DHT22;6305;48.398;11.762;2023-03-19T08:53:23;12.10;99.90
12481;DHT22;6305;48.398;11.762;2023-03-19T08:55:51;12.20;99.90
12481;DHT22;6305;48.398;11.762;2023-03-19T08:58:19;12.50;99.90
12481;DHT22;6305;48.398;11.762;2023-03-19T09:00:46;12.80;99.90
12481;DHT22;6305;48.398;11.762;2023-03-19T09:03:15;12.90;99.90
12481;DHT22;6305;48.398;11.762;2023-03-19T09:05:42;13.00;99.90
12481;DHT22;6305;48.398;11.762;2023-03-19T09:08:10;12.90;99.90
12481;DHT22;6305;48.398;11.762;2023-03-19T09:10:38;12.90;99.90
12481;DHT22;6305;48.398;11.762;2023-03-19T09:13:06;12.90;99.90
12481;DHT22;6305;48.398;11.762;2023-03-19T09:15:33;13.00;99.90
12481;DHT22;6305;48.398;11.762;2023-03-19T09:17:59;13.00;99.90
12481;DHT22;6305;48.398;11.762;2023-03-19T09:20:26;13.10;99.90
12481;DHT22;6305;48.398;11.762;2023-03-19T09:22:53;13.20;99.90
12481;DHT22;6305;48.398;11.762;2023-03-19T09:25:20;13.20;99.90
12481;DHT22;6305;48.398;11.762;2023-03-19T09:27:49;13.50;99.90
12481;DHT22;6305;48.398;11.762;2023-03-19T09:30:16;13.90;99.90
12481;DHT22;6305;48.398;11.762;2023-03-19T09:32:43;14.20;99.90
12481;DHT22;6305;48.398;11.762;2023-03-19T09:35:10;14.50;99.90
12481;DHT22;6305;48.398;11.762;2023-03-19T09:37:37;14.70;99.90
12481;DHT22;6305;48.398;11.762;2023-03-19T09:40:05;14.80;99.90
12481;DHT22;6305;48.398;11.762;2023-03-19T09:42:57;14.80;99.90
12481;DHT22;6305;48.398;11.762;2023-03-19T09:45:27;14.70;99.90
12481;DHT22;6305;48.398;11.762;2023-03-19T09:47:59;14.40;99.90
12481;DHT22;6305;48.398;11.762;2023-03-19T09:50:29;14.20;99.90
12481;DHT22;6305;48.398;11.762;2023-03-19T09:53:04;14.20;99.90
12481;DHT22;6305;48.398;11.762;2023-03-19T09:55:40;14.00;99.90
12481;DHT22;6305;48.398;11.762;2023-03-19T09:58:18;14.00;99.90
12481;DHT22;6305;48.398;11.762;2023-03-19T10:00:48;14.10;99.90
12481;DHT22;6305;48.398;11.762;2023-03-19T10:03:31;14.60;99.90
12481;DHT22;6305;48.398;11.762;2023-03-19T10:09:24;15.80;99.90
12481;DHT22;6305;48.398;11.762;2023-03-19T10:11:59;16.00;99.90
12481;DHT22;6305;48.398;11.762;2023-03-19T10:14:56;15.80;99.90
12481;DHT22;6305;48.398;11.762;2023-03-19T10:17:30;15.80;99.90
12481;DHT22;6305;48.398;11.762;2023-03-19T10:20:02;16.10;99.90
12481;DHT22;6305;48.398;11.762;2023-03-19T10:22:36;16.40;99.20
12481;DHT22;6305;48.398;11.762;2023-03-19T10:25:07;16.90;99.90
12481;DHT22;6305;48.398;11.762;2023-03-19T10:27:36;17.70;98.70
12481;DHT22;6305;48.398;11.762;2023-03-19T10:30:13;18.80;93.80
12481;DHT22;6305;48.398;11.762;2023-03-19T10:32:42;20.40;84.40
12481;DHT22;6305;48.398;11.762;2023-03-19T10:35:17;21.80;72.20
12481;DHT22;6305;48.398;11.762;2023-03-19T10:37:45;23.00;60.60
12481;DHT22;6305;48.398;11.762;2023-03-19T10:40:19;23.80;56.70
12481;DHT22;6305;48.398;11.762;2023-03-19T10:42:55;23.60;53.30
12481;DHT22;6305;48.398;11.762;2023-03-19T10:45:30;23.10;53.20
12481;DHT22;6305;48.398;11.762;2023-03-19T10:48:00;22.40;53.70
12481;DHT22;6305;48.398;11.762;2023-03-19T10:50:30;22.50;54.80
12481;DHT22;6305;48.398;11.762;2023-03-19T10:53:06;22.20;54.00
12481;DHT22;6305;48.398;11.762;2023-03-19T10:55:33;21.40;55.20
12481;DHT22;6305;48.398;11.762;2023-03-19T10:58:02;20.90;56.80
12481;DHT22;6305;48.398;11.762;2023-03-19T11:00:32;20.40;57.60
12481;DHT22;6305;48.398;11.762;2023-03-19T11:03:01;19.90;58.70
12481;DHT22;6305;48.398;11.762;2023-03-19T11:05:31;19.90;60.20
12481;DHT22;6305;48.398;11.762;2023-03-19T11:08:01;19.60;62.20
12481;DHT22;6305;48.398;11.762;2023-03-19T11:10:31;19.50;62.90
12481;DHT22;6305;48.398;11.762;2023-03-19T11:12:59;19.30;63.40
12481;DHT22;6305;48.398;11.762;2023-03-19T11:15:35;19.20;64.50
12481;DHT22;6305;48.398;11.762;2023-03-19T11:18:07;19.20;64.30
12481;DHT22;6305;48.398;11.762;2023-03-19T11:20:35;18.70;65.40
12481;DHT22;6305;48.398;11.762;2023-03-19T11:23:10;18.10;68.10
12481;DHT22;6305;48.398;11.762;2023-03-19T11:25:39;17.80;71.50
12481;DHT22;6305;48.398;11.762;2023-03-19T11:28:08;17.50;75.10
12481;DHT22;6305;48.398;11.762;2023-03-19T11:30:45;17.40;77.50
12481;DHT22;6305;48.398;11.762;2023-03-19T11:33:43;17.30;77.20
12481;DHT22;6305;48.398;11.762;2023-03-19T11:36:19;17.00;79.60
12481;DHT22;6305;48.398;11.762;2023-03-19T11:38:57;16.90;81.00
12481;DHT22;6305;48.398;11.762;2023-03-19T11:41:36;16.90;83.60
12481;DHT22;6305;48.398;11.762;2023-03-19T11:44:11;16.60;80.30
12481;DHT22;6305;48.398;11.762;2023-03-19T11:46:50;16.30;80.20
12481;DHT22;6305;48.398;11.762;2023-03-19T11:52:25;15.80;83.10
12481;DHT22;6305;48.398;11.762;2023-03-19T11:55:03;15.90;83.80
12481;DHT22;6305;48.398;11.762;2023-03-19T11:57:47;16.00;83.90
12481;DHT22;6305;48.398;11.762;2023-03-19T12:00:26;16.10;83.20
12481;DHT22;6305;48.398;11.762;2023-03-19T12:03:14;16.20;84.10
12481;DHT22;6305;48.398;11.762;2023-03-19T12:05:50;16.50;80.50
12481;DHT22;6305;48.398;11.762;2023-03-19T12:08:29;16.70;80.30
12481;DHT22;6305;48.398;11.762;2023-03-19T12:11:15;16.90;79.30
12481;DHT22;6305;48.398;11.762;2023-03-19T12:14:01;17.20;76.10
12481;DHT22;6305;48.398;11.762;2023-03-19T12:16:40;17.10;74.70
12481;DHT22;6305;48.398;11.762;2023-03-19T12:19:26;16.90;73.10
12481;DHT22;6305;48.398;11.762;2023-03-19T12:22:04;16.60;74.70
12481;DHT22;6305;48.398;11.762;2023-03-19T12:24:47;16.60;77.20
12481;DHT22;6305;48.398;11.762;2023-03-19T12:27:23;16.60;76.80
12481;DHT22;6305;48.398;11.762;2023-03-19T12:29:59;16.40;78.70
12481;DHT22;6305;48.398;11.762;2023-03-19T12:32:34;16.30;80.10
12481;DHT22;6305;48.398;11.762;2023-03-19T12:35:12;16.40;81.70
12481;DHT22;6305;48.398;11.762;2023-03-19T12:37:45;16.60;81.90
12481;DHT22;6305;48.398;11.762;2023-03-19T12:40:24;16.80;80.20
12481;DHT22;6305;48.398;11.762;2023-03-19T12:42:57;17.20;79.30
12481;DHT22;6305;48.398;11.762;2023-03-19T12:45:28;17.60;75.80
12481;DHT22;6305;48.398;11.762;2023-03-19T12:48:01;17.90;74.80
12481;DHT22;6305;48.398;11.762;2023-03-19T12:50:33;18.50;73.40
12481;DHT22;6305;48.398;11.762;2023-03-19T12:53:04;19.20;70.50
12481;DHT22;6305;48.398;11.762;2023-03-19T12:55:38;19.70;67.30
12481;DHT22;6305;48.398;11.762;2023-03-19T12:58:11;20.30;64.00
12481;DHT22;6305;48.398;11.762;2023-03-19T13:00:45;20.50;61.30
12481;DHT22;6305;48.398;11.762;2023-03-19T13:03:17;20.50;59.10
12481;DHT22;6305;48.398;11.762;2023-03-19T13:05:54;20.20;58.30
12481;DHT22;6305;48.398;11.762;2023-03-19T13:08:27;20.00;58.70
12481;DHT22;6305;48.398;11.762;2023-03-19T13:10:57;19.80;59.00
12481;DHT22;6305;48.398;11.762;2023-03-19T13:13:33;19.40;58.70
12481;DHT22;6305;48.398;11.762;2023-03-19T13:16:09;19.00;59.80
12481;DHT22;6305;48.398;11.762;2023-03-19T13:18:46;18.80;60.90
12481;DHT22;6305;48.398;11.762;2023-03-19T13:21:22;18.70;61.60
12481;DHT22;6305;48.398;11.762;2023-03-19T13:23:59;18.50;61.50
12481;DHT22;6305;48.398;11.762;2023-03-19T13:26:28;18.20;62.40
12481;DHT22;6305;48.398;11.762;2023-03-19T13:28:59;17.80;63.70
12481;DHT22;6305;48.398;11.762;2023-03-19T13:31:30;17.40;64.60
12481;DHT22;6305;48.398;11.762;2023-03-19T13:34:01;17.20;66.10
12481;DHT22;6305;48.398;11.762;2023-03-19T13:36:35;16.90;66.70
12481;DHT22;6305;48.398;11.762;2023-03-19T13:39:08;16.40;68.80
12481;DHT22;6305;48.398;11.762;2023-03-19T13:41:57;16.10;71.60
12481;DHT22;6305;48.398;11.762;2023-03-19T13:44:36;15.70;73.70
12481;DHT22;6305;48.398;11.762;2023-03-19T13:47:41;15.20;77.30
12481;DHT22;6305;48.398;11.762;2023-03-19T13:50:30;14.80;82.60
12481;DHT22;6305;48.398;11.762;2023-03-19T13:53:33;14.60;89.80
12481;DHT22;6305;48.398;11.762;2023-03-19T13:56:03;14.30;92.00
12481;DHT22;6305;48.398;11.762;2023-03-19T13:58:43;14.00;93.80
12481;DHT22;6305;48.398;11.762;2023-03-19T14:01:40;13.70;97.10
12481;DHT22;6305;48.398;11.762;2023-03-19T14:04:19;13.20;99.90
12481;DHT22;6305;48.398;11.762;2023-03-19T14:06:47;12.80;99.90
12481;DHT22;6305;48.398;11.762;2023-03-19T14:09:35;12.60;99.90
12481;DHT22;6305;48.398;11.762;2023-03-19T14:12:19;12.60;99.90
12481;DHT22;6305;48.398;11.762;2023-03-19T14:14:50;12.70;99.90
12481;DHT22;6305;48.398;11.762;2023-03-19T14:17:20;12.80;99.90
12481;DHT22;6305;48.398;11.762;2023-03-19T14:19:49;12.90;99.90
12481;DHT22;6305;48.398;11.762;2023-03-19T14:22:19;13.10;99.90
12481;DHT22;6305;48.398;11.762;2023-03-19T14:25:02;13.40;99.90
12481;DHT22;6305;48.398;11.762;2023-03-19T14:27:30;13.60;99.90
12481;DHT22;6305;48.398;11.762;2023-03-19T14:30:02;13.90;99.90
12481;DHT22;6305;48.398;11.762;2023-03-19T14:32:37;14.10;99.90
12481;DHT22;6305;48.398;11.762;2023-03-19T14:35:06;14.40;99.90
12481;DHT22;6305;48.398;11.762;2023-03-19T14:37:43;14.90;99.90
12481;DHT22;6305;48.398;11.762;2023-03-19T14:40:16;15.60;99.90
12481;DHT22;6305;48.398;11.762;2023-03-19T14:42:55;16.60;99.30
12481;DHT22;6305;48.398;11.762;2023-03-19T14:45:40;17.90;92.50
12481;DHT22;6305;48.398;11.762;2023-03-19T14:51:29;21.20;67.40
12481;DHT22;6305;48.398;11.762;2023-03-19T14:54:04;22.60;55.00
12481;DHT22;6305;48.398;11.762;2023-03-19T14:56:34;22.30;51.30
12481;DHT22;6305;48.398;11.762;2023-03-19T14:59:02;21.90;50.70
12481;DHT22;6305;48.398;11.762;2023-03-19T15:01:33;22.00;52.00
12481;DHT22;6305;48.398;11.762;2023-03-19T15:04:08;22.20;51.00
12481;DHT22;6305;48.398;11.762;2023-03-19T15:06:38;22.40;49.30
12481;DHT22;6305;48.398;11.762;2023-03-19T15:09:13;22.80;49.20
12481;DHT22;6305;48.398;11.762;2023-03-19T15:14:45;22.60;47.50
12481;DHT22;6305;48.398;11.762;2023-03-19T15:17:20;22.60;46.70
12481;DHT22;6305;48.398;11.762;2023-03-19T15:19:49;22.20;46.80
12481;DHT22;6305;48.398;11.762;2023-03-19T15:22:19;21.80;47.10
12481;DHT22;6305;48.398;11.762;2023-03-19T15:24:47;21.40;47.70
12481;DHT22;6305;48.398;11.762;2023-03-19T15:27:21;21.50;48.10
12481;DHT22;6305;48.398;11.762;2023-03-19T15:29:48;22.10;48.40
12481;DHT22;6305;48.398;11.762;2023-03-19T15:32:33;22.60;47.50
12481;DHT22;6305;48.398;11.762;2023-03-19T15:35:01;22.70;46.30
12481;DHT22;6305;48.398;11.762;2023-03-19T15:37:29;21.90;46.10
12481;DHT22;6305;48.398;11.762;2023-03-19T15:39:59;20.90;47.50
12481;DHT22;6305;48.398;11.762;2023-03-19T15:42:30;20.30;49.40
12481;DHT22;6305;48.398;11.762;2023-03-19T15:45:01;19.50;50.30
12481;DHT22;6305;48.398;11.762;2023-03-19T15:47:34;18.60;51.40
12481;DHT22;6305;48.398;11.762;2023-03-19T15:50:06;17.90;53.20
12481;DHT22;6305;48.398;11.762;2023-03-19T15:52:37;17.30;54.40
12481;DHT22;6305;48.398;11.762;2023-03-19T15:55:07;16.80;55.70
12481;DHT22;6305;48.398;11.762;2023-03-19T15:57:37;16.50;57.30
12481;DHT22;6305;48.398;11.762;2023-03-19T16:00:08;16.30;58.50
12481;DHT22;6305;48.398;11.762;2023-03-19T16:02:39;16.10;59.40
12481;DHT22;6305;48.398;11.762;2023-03-19T16:05:22;15.80;60.00
12481;DHT22;6305;48.398;11.762;2023-03-19T16:07:52;15.50;61.30
12481;DHT22;6305;48.398;11.762;2023-03-19T16:10:31;15.30;63.10
12481;DHT22;6305;48.398;11.762;2023-03-19T16:13:00;15.10;65.00
12481;DHT22;6305;48.398;11.762;2023-03-19T16:15:35;14.90;66.40